Time;durP1;ratioP1;P1;durP2;ratioP2;P2;SDS_P1;SDS_P2;PMS_P1;PMS_P2;Temp;Humidity;BMP_temperature;BMP_pressure;BME280_temperature;BME280_humidity;BME280_pressure;Samples;Min_cycle;Max_cycle;Signal;HPM_P1;HPM_P2
2021/08/09 00:00:40;;;;;;;11.50;2.95;;;14.50;99.90;;;;;;5067948;28;20059;-85
2021/08/09 00:03:06;;;;;;;12.90;3.60;;;14.50;99.90;;;;;;5086437;28;20085;-84
2021/08/09 00:05:34;;;;;;;19.17;3.25;;;14.50;99.90;;;;;;5092412;28;20050;-85
2021/08/09 00:07:59;;;;;;;12.52;2.85;;;14.50;99.90;;;;;;5109569;28;20129;-84
2021/08/09 00:10:27;;;;;;;20.80;3.35;;;14.50;99.90;;;;;;5088344;28;20123;-84
2021/08/09 00:12:55;;;;;;;17.67;3.20;;;14.40;99.90;;;;;;5084780;28;20055;-84
2021/08/09 00:15:21;;;;;;;14.80;2.85;;;14.40;99.90;;;;;;5099306;28;20559;-87
2021/08/09 00:17:46;;;;;;;12.52;2.90;;;14.40;99.90;;;;;;5092880;28;20130;-84
2021/08/09 00:20:13;;;;;;;14.13;2.58;;;14.40;99.90;;;;;;5089383;28;20073;-84
2021/08/09 00:22:39;;;;;;;14.07;2.63;;;14.40;99.90;;;;;;5077803;28;20040;-84
2021/08/09 00:25:06;;;;;;;13.80;3.85;;;14.40;99.90;;;;;;5110261;28;20043;-84
2021/08/09 00:27:33;;;;;;;15.50;3.03;;;14.40;99.90;;;;;;5080146;28;20032;-83
2021/08/09 00:29:59;;;;;;;8.85;3.05;;;14.50;99.90;;;;;;5108470;28;20040;-84
2021/08/09 00:32:25;;;;;;;14.65;3.28;;;14.40;99.90;;;;;;5060547;28;20043;-84
2021/08/09 00:34:51;;;;;;;11.82;2.97;;;14.40;99.90;;;;;;5083423;28;20391;-86
2021/08/09 00:37:17;;;;;;;13.95;3.17;;;14.40;99.90;;;;;;5086246;28;20051;-86
2021/08/09 00:39:43;;;;;;;13.43;3.17;;;14.40;99.90;;;;;;5102925;28;20096;-85
2021/08/09 00:42:09;;;;;;;14.75;3.40;;;14.40;99.90;;;;;;5104906;28;20097;-85
2021/08/09 00:44:35;;;;;;;21.95;4.50;;;14.40;99.90;;;;;;5094331;28;20044;-85
2021/08/09 00:47:02;;;;;;;17.52;3.33;;;14.40;99.90;;;;;;5093428;28;20047;-85
2021/08/09 00:49:27;;;;;;;15.73;3.17;;;14.40;99.90;;;;;;5091450;28;20043;-85
2021/08/09 00:51:55;;;;;;;18.15;4.25;;;14.40;99.90;;;;;;5102113;28;20036;-85
2021/08/09 00:54:22;;;;;;;16.50;3.40;;;14.40;99.90;;;;;;5110094;28;20043;-85
2021/08/09 00:56:50;;;;;;;11.07;2.80;;;14.30;99.90;;;;;;5082207;28;20054;-85
2021/08/09 00:59:16;;;;;;;15.05;3.40;;;14.30;99.90;;;;;;5082141;28;20028;-85
2021/08/09 01:01:42;;;;;;;21.88;2.78;;;14.30;99.90;;;;;;5083291;28;20054;-85
2021/08/09 01:04:09;;;;;;;13.77;3.22;;;14.30;99.90;;;;;;5047583;28;20074;-86
2021/08/09 01:06:35;;;;;;;13.10;3.08;;;14.30;99.90;;;;;;5109461;28;20499;-86
2021/08/09 01:09:22;;;;;;;13.30;2.92;;;14.30;99.90;;;;;;5088436;28;20044;-85
2021/08/09 01:12:02;;;;;;;14.18;3.28;;;14.30;99.90;;;;;;5107195;28;20071;-86
2021/08/09 01:14:42;;;;;;;14.30;2.93;;;14.30;99.90;;;;;;5087920;28;20035;-86
2021/08/09 01:17:10;;;;;;;19.15;3.28;;;14.20;99.90;;;;;;5104132;28;20067;-85
2021/08/09 01:19:36;;;;;;;21.30;3.75;;;14.20;99.90;;;;;;5091022;28;20399;-85
2021/08/09 01:22:10;;;;;;;18.80;4.50;;;14.20;99.90;;;;;;5095046;28;20036;-85
2021/08/09 01:24:46;;;;;;;13.30;3.22;;;14.20;99.90;;;;;;5106916;28;20486;-86
2021/08/09 01:27:32;;;;;;;13.85;3.13;;;14.10;99.90;;;;;;5084396;28;20040;-85
2021/08/09 01:30:03;;;;;;;16.92;3.53;;;14.10;99.90;;;;;;5109818;28;20043;-86
2021/08/09 01:32:31;;;;;;;15.95;3.03;;;14.10;99.90;;;;;;5099140;28;20072;-87
2021/08/09 01:34:58;;;;;;;16.02;3.15;;;14.00;99.90;;;;;;5108419;28;20047;-86
2021/08/09 01:37:26;;;;;;;14.85;3.42;;;14.00;99.90;;;;;;5084608;28;20038;-86
2021/08/09 01:39:52;;;;;;;12.50;3.42;;;14.00;99.90;;;;;;5091092;28;20035;-86
2021/08/09 01:42:18;;;;;;;10.52;3.25;;;13.90;99.90;;;;;;5057004;28;20040;-86
2021/08/09 01:44:46;;;;;;;18.02;3.65;;;13.90;99.90;;;;;;5087024;28;20032;-86
2021/08/09 01:47:12;;;;;;;20.60;3.50;;;13.80;99.90;;;;;;5073794;28;20550;-86
2021/08/09 01:49:39;;;;;;;18.27;3.42;;;13.80;99.90;;;;;;5102874;28;20047;-86
2021/08/09 01:52:05;;;;;;;10.77;2.72;;;13.70;99.90;;;;;;5057128;28;20092;-86
2021/08/09 01:54:32;;;;;;;14.93;4.03;;;13.70;99.90;;;;;;5100362;28;20059;-86
2021/08/09 01:56:58;;;;;;;18.10;3.80;;;13.70;99.90;;;;;;5102749;28;20158;-87
2021/08/09 01:59:24;;;;;;;12.40;3.88;;;13.70;99.90;;;;;;5071587;28;20043;-86
2021/08/09 02:01:51;;;;;;;11.63;3.47;;;13.70;99.90;;;;;;5096142;28;20567;-86
2021/08/09 02:04:17;;;;;;;18.05;3.67;;;13.60;99.90;;;;;;5097888;28;20248;-86
2021/08/09 02:06:43;;;;;;;19.13;3.60;;;13.60;99.90;;;;;;5107558;28;20035;-86
2021/08/09 02:09:09;;;;;;;15.35;4.05;;;13.60;99.90;;;;;;5091483;28;20047;-87
2021/08/09 02:11:45;;;;;;;18.70;5.03;;;13.60;99.90;;;;;;5089654;28;20039;-85
2021/08/09 02:14:14;;;;;;;14.25;3.72;;;13.60;99.90;;;;;;5085321;28;20494;-86
2021/08/09 02:16:53;;;;;;;16.63;3.65;;;13.70;99.90;;;;;;5093514;28;20173;-85
2021/08/09 02:19:33;;;;;;;15.85;3.97;;;13.70;99.90;;;;;;5099603;28;20032;-85
2021/08/09 02:22:12;;;;;;;15.20;3.65;;;13.70;99.90;;;;;;5070659;28;20430;-85
2021/08/09 02:24:58;;;;;;;28.23;4.82;;;13.70;99.90;;;;;;5085619;28;20044;-85
2021/08/09 02:27:26;;;;;;;11.38;3.85;;;13.60;99.90;;;;;;5088338;28;20036;-85
2021/08/09 02:29:52;;;;;;;14.88;4.13;;;13.60;99.90;;;;;;5053622;28;20036;-85
2021/08/09 02:32:24;;;;;;;20.23;4.20;;;13.60;99.90;;;;;;5088795;28;20123;-86
2021/08/09 02:34:52;;;;;;;24.98;4.22;;;13.60;99.90;;;;;;5091131;28;20051;-84
2021/08/09 02:37:18;;;;;;;19.05;4.05;;;13.70;99.90;;;;;;5091760;28;20475;-86
2021/08/09 02:39:45;;;;;;;16.40;3.72;;;13.60;99.90;;;;;;5090558;28;20059;-86
2021/08/09 02:42:12;;;;;;;12.45;3.72;;;13.70;99.90;;;;;;5092315;28;20071;-85
2021/08/09 02:44:41;;;;;;;19.13;3.30;;;13.80;99.90;;;;;;5091178;28;20052;-86
2021/08/09 02:47:10;;;;;;;20.10;3.40;;;13.80;99.90;;;;;;5073701;28;20047;-85
2021/08/09 02:49:39;;;;;;;15.85;3.47;;;13.80;99.90;;;;;;5091678;28;20048;-86
2021/08/09 02:52:07;;;;;;;18.38;3.65;;;13.80;99.90;;;;;;5073623;28;20040;-86
2021/08/09 02:54:35;;;;;;;14.65;3.63;;;13.80;99.90;;;;;;5073816;28;20143;-87
2021/08/09 02:57:02;;;;;;;18.20;3.53;;;13.80;99.90;;;;;;5072783;28;20048;-85
2021/08/09 02:59:27;;;;;;;20.67;3.95;;;13.80;99.90;;;;;;5092341;28;20044;-86
2021/08/09 03:01:54;;;;;;;11.82;3.20;;;13.80;99.90;;;;;;5072342;28;20040;-86
2021/08/09 03:04:22;;;;;;;16.10;3.00;;;13.80;99.90;;;;;;5073624;28;20496;-86
2021/08/09 03:06:50;;;;;;;23.73;3.43;;;13.90;99.90;;;;;;5056236;28;20575;-85
2021/08/09 03:09:16;;;;;;;16.23;3.53;;;13.90;99.90;;;;;;5094724;28;20371;-86
2021/08/09 03:11:42;;;;;;;18.05;3.85;;;13.90;99.90;;;;;;5075537;28;20398;-85
2021/08/09 03:14:21;;;;;;;26.25;4.35;;;13.90;99.90;;;;;;5089545;28;20602;-86
2021/08/09 03:16:48;;;;;;;16.92;3.78;;;13.90;99.90;;;;;;5078349;28;20078;-85
2021/08/09 03:19:14;;;;;;;17.08;5.13;;;13.90;99.90;;;;;;5096476;28;20044;-85
2021/08/09 03:21:52;;;;;;;15.70;3.70;;;13.90;99.90;;;;;;5075752;28;20105;-86
2021/08/09 03:24:19;;;;;;;18.25;4.22;;;13.90;99.90;;;;;;5089131;28;20490;-85
2021/08/09 03:26:45;;;;;;;20.25;4.65;;;13.80;99.90;;;;;;5081216;28;20834;-86
2021/08/09 03:29:10;;;;;;;14.60;3.70;;;13.90;99.90;;;;;;5074428;28;20047;-86
2021/08/09 03:31:36;;;;;;;26.80;6.35;;;13.90;99.90;;;;;;5107995;28;20044;-87
2021/08/09 03:34:02;;;;;;;27.83;3.88;;;13.90;99.90;;;;;;5085280;28;20615;-86
2021/08/09 03:36:28;;;;;;;13.55;3.47;;;14.00;99.90;;;;;;5092902;28;20031;-87
2021/08/09 03:38:54;;;;;;;20.08;3.63;;;14.00;99.90;;;;;;5081372;28;20497;-87
2021/08/09 03:41:19;;;;;;;19.60;3.50;;;14.00;99.90;;;;;;5072229;28;20051;-86
2021/08/09 03:43:45;;;;;;;19.48;3.53;;;14.10;99.90;;;;;;5081456;28;20048;-87
2021/08/09 03:46:11;;;;;;;19.13;3.65;;;14.10;99.90;;;;;;5072951;28;20442;-87
2021/08/09 03:48:37;;;;;;;18.17;3.70;;;14.10;99.90;;;;;;5100444;28;20051;-87
2021/08/09 03:51:02;;;;;;;16.15;4.35;;;14.10;99.90;;;;;;5111375;28;20040;-87
2021/08/09 03:53:28;;;;;;;18.67;4.22;;;14.20;99.90;;;;;;5098545;28;20039;-86
2021/08/09 03:55:55;;;;;;;24.05;4.43;;;14.20;99.90;;;;;;5062854;28;20094;-86
2021/08/09 03:58:21;;;;;;;21.13;4.13;;;14.20;99.90;;;;;;5072090;28;20047;-86
2021/08/09 04:00:47;;;;;;;17.33;3.47;;;14.20;99.90;;;;;;5084218;28;20052;-86
2021/08/09 04:03:13;;;;;;;26.67;4.40;;;14.10;99.90;;;;;;5104238;28;20044;-86
2021/08/09 04:05:39;;;;;;;19.27;4.70;;;14.20;99.90;;;;;;5110755;28;20517;-86
2021/08/09 04:08:05;;;;;;;21.05;3.97;;;14.20;99.90;;;;;;5099005;28;20497;-86
2021/08/09 04:10:30;;;;;;;12.55;3.38;;;14.20;99.90;;;;;;5090416;28;20406;-86
2021/08/09 04:12:57;;;;;;;14.40;3.33;;;14.20;99.90;;;;;;5093122;28;20080;-87
2021/08/09 04:15:23;;;;;;;16.00;3.67;;;14.20;99.90;;;;;;5072111;28;20058;-85
2021/08/09 04:17:49;;;;;;;31.95;4.70;;;14.20;99.90;;;;;;5071355;28;20062;-86
2021/08/09 04:20:15;;;;;;;17.45;4.35;;;14.20;99.90;;;;;;5072716;28;20480;-85
2021/08/09 04:22:41;;;;;;;16.65;3.38;;;14.20;99.90;;;;;;5073500;28;20050;-87
2021/08/09 04:25:07;;;;;;;23.77;4.07;;;14.20;99.90;;;;;;5058267;28;20050;-84
2021/08/09 04:27:33;;;;;;;13.18;3.72;;;14.20;99.90;;;;;;5090394;28;20040;-84
2021/08/09 04:29:59;;;;;;;16.42;3.53;;;14.20;99.90;;;;;;5089508;28;21019;-84
2021/08/09 04:32:25;;;;;;;18.00;3.65;;;14.20;99.90;;;;;;5055404;28;20118;-86
2021/08/09 04:34:51;;;;;;;27.05;5.93;;;14.30;99.90;;;;;;5071209;28;20060;-86
2021/08/09 04:37:19;;;;;;;16.30;4.15;;;14.30;99.90;;;;;;5071148;28;20075;-86
2021/08/09 04:39:45;;;;;;;32.72;4.63;;;14.30;99.90;;;;;;5071871;28;20054;-87
2021/08/09 04:42:11;;;;;;;23.80;4.25;;;14.30;99.90;;;;;;5071174;28;20040;-85
2021/08/09 04:44:37;;;;;;;20.60;3.83;;;14.30;99.90;;;;;;5054697;28;20097;-86
2021/08/09 04:47:03;;;;;;;16.85;4.22;;;14.30;99.90;;;;;;5070593;28;20202;-86
2021/08/09 04:49:29;;;;;;;16.75;3.42;;;14.30;99.90;;;;;;5055481;28;20269;-85
2021/08/09 04:51:54;;;;;;;16.67;3.33;;;14.40;99.90;;;;;;5075540;28;20043;-86
2021/08/09 04:54:20;;;;;;;23.60;4.18;;;14.40;99.90;;;;;;5054604;28;20044;-86
2021/08/09 04:56:46;;;;;;;17.08;3.72;;;14.40;99.90;;;;;;5066439;28;20049;-87
2021/08/09 04:59:12;;;;;;;20.85;3.90;;;14.40;99.90;;;;;;5051988;28;20097;-85
2021/08/09 05:01:38;;;;;;;22.73;4.40;;;14.40;99.90;;;;;;5068771;28;20048;-86
2021/08/09 05:04:05;;;;;;;16.17;3.42;;;14.50;99.90;;;;;;5034657;28;20653;-86
2021/08/09 05:06:33;;;;;;;13.48;3.53;;;14.50;99.90;;;;;;5051338;28;20045;-86
2021/08/09 05:08:59;;;;;;;25.23;3.78;;;14.50;99.90;;;;;;5057379;28;20401;-85
2021/08/09 05:11:29;;;;;;;21.55;3.97;;;14.50;99.90;;;;;;5089950;28;20122;-88
2021/08/09 05:13:56;;;;;;;13.27;3.55;;;14.50;99.90;;;;;;5064887;28;20444;-86
2021/08/09 05:16:22;;;;;;;15.23;3.60;;;14.50;99.90;;;;;;5084258;28;20040;-86
2021/08/09 05:18:50;;;;;;;15.70;4.70;;;14.60;99.90;;;;;;5060668;28;20045;-87
2021/08/09 05:21:16;;;;;;;15.95;3.60;;;14.50;99.90;;;;;;5065612;28;20115;-86
2021/08/09 05:23:42;;;;;;;21.00;4.07;;;14.50;99.90;;;;;;5061524;28;20123;-86
2021/08/09 05:26:10;;;;;;;11.13;3.13;;;14.50;99.90;;;;;;5081702;28;20119;-86
2021/08/09 05:28:36;;;;;;;23.08;3.80;;;14.60;99.90;;;;;;5052953;28;20044;-86
2021/08/09 05:31:03;;;;;;;19.98;4.05;;;14.60;99.90;;;;;;5069819;28;20085;-86
2021/08/09 05:33:30;;;;;;;15.15;3.92;;;14.50;99.90;;;;;;5061147;28;20479;-87
2021/08/09 05:35:55;;;;;;;20.50;3.95;;;14.60;99.90;;;;;;5070817;28;20039;-85
2021/08/09 05:38:21;;;;;;;22.35;3.92;;;14.60;99.90;;;;;;5060235;28;20498;-86
2021/08/09 05:40:47;;;;;;;19.80;3.30;;;14.60;99.90;;;;;;5089313;28;20044;-87
2021/08/09 05:43:13;;;;;;;14.07;3.70;;;14.60;99.90;;;;;;5055963;28;20403;-87
2021/08/09 05:45:39;;;;;;;17.30;3.80;;;14.70;99.90;;;;;;5051519;28;20075;-86
2021/08/09 05:48:05;;;;;;;19.95;4.03;;;14.70;99.90;;;;;;5074424;28;20075;-88
2021/08/09 05:50:31;;;;;;;19.70;4.65;;;14.70;99.90;;;;;;5056870;28;20082;-87
2021/08/09 05:52:57;;;;;;;20.45;4.00;;;14.80;99.90;;;;;;5038792;28;20049;-86
2021/08/09 05:55:25;;;;;;;14.43;3.20;;;14.80;99.90;;;;;;5070620;28;20036;-86
2021/08/09 05:57:51;;;;;;;21.63;3.95;;;14.80;99.90;;;;;;5074904;28;20040;-87
2021/08/09 06:00:17;;;;;;;13.07;3.88;;;14.90;99.90;;;;;;5088621;28;20093;-87
2021/08/09 06:02:44;;;;;;;16.73;3.40;;;14.90;99.90;;;;;;5055592;28;20047;-88
2021/08/09 06:05:10;;;;;;;25.23;5.28;;;14.90;99.90;;;;;;5088001;28;20044;-89
2021/08/09 06:07:37;;;;;;;18.73;3.42;;;15.00;99.90;;;;;;5073313;28;20040;-87
2021/08/09 06:10:03;;;;;;;17.02;3.60;;;15.10;99.90;;;;;;5102176;28;20092;-87
2021/08/09 06:12:29;;;;;;;19.15;4.82;;;15.10;99.90;;;;;;5088574;28;20044;-87
2021/08/09 06:14:54;;;;;;;19.10;3.35;;;15.10;99.90;;;;;;5092991;28;20096;-87
2021/08/09 06:17:22;;;;;;;22.25;3.92;;;15.10;99.90;;;;;;5064887;28;20044;-87
2021/08/09 06:19:48;;;;;;;13.65;3.63;;;15.20;99.90;;;;;;5073923;28;20043;-87
2021/08/09 06:22:14;;;;;;;18.88;3.70;;;15.20;99.90;;;;;;5091401;28;20436;-87
2021/08/09 06:24:40;;;;;;;25.27;3.85;;;15.20;99.90;;;;;;5092120;28;20503;-86
2021/08/09 06:27:06;;;;;;;15.50;3.72;;;15.20;99.90;;;;;;5056420;28;20036;-87
2021/08/09 06:29:31;;;;;;;21.48;4.03;;;15.30;99.90;;;;;;5092346;28;20453;-87
2021/08/09 06:31:57;;;;;;;16.38;3.63;;;15.30;99.90;;;;;;5073416;28;20044;-88
2021/08/09 06:34:23;;;;;;;17.70;3.63;;;15.40;99.90;;;;;;5092312;28;20044;-87
2021/08/09 06:36:49;;;;;;;11.35;3.85;;;15.40;99.90;;;;;;5057100;28;20044;-86
2021/08/09 06:39:19;;;;;;;17.10;3.97;;;15.40;99.90;;;;;;5091408;28;20040;-85
2021/08/09 06:41:45;;;;;;;18.27;4.40;;;15.40;99.90;;;;;;5057875;28;20089;-86
2021/08/09 06:44:10;;;;;;;15.63;3.50;;;15.40;99.90;;;;;;5091618;28;20532;-86
2021/08/09 06:46:36;;;;;;;20.25;3.90;;;15.50;99.90;;;;;;5091988;28;20346;-86
2021/08/09 06:49:04;;;;;;;18.85;4.15;;;15.60;99.90;;;;;;5090478;28;20070;-87
2021/08/09 06:51:30;;;;;;;18.75;3.90;;;15.70;99.90;;;;;;5091510;28;20044;-87
2021/08/09 06:53:56;;;;;;;21.55;3.75;;;15.70;99.90;;;;;;5089665;28;20048;-88
2021/08/09 06:56:21;;;;;;;16.98;3.30;;;15.80;99.90;;;;;;5073113;28;20384;-86
2021/08/09 06:58:47;;;;;;;12.35;3.38;;;15.80;99.90;;;;;;5063639;28;20067;-86
2021/08/09 07:01:13;;;;;;;15.70;3.30;;;15.90;99.90;;;;;;5090479;28;20044;-87
2021/08/09 07:03:39;;;;;;;18.25;3.70;;;16.00;99.90;;;;;;5073490;28;20068;-86
2021/08/09 07:06:05;;;;;;;19.30;4.13;;;16.00;99.90;;;;;;5072525;28;20040;-85
2021/08/09 07:08:31;;;;;;;20.45;3.92;;;16.00;99.90;;;;;;5072434;28;20032;-87
2021/08/09 07:10:56;;;;;;;15.07;3.28;;;16.10;99.90;;;;;;5072999;28;20060;-87
2021/08/09 07:13:22;;;;;;;23.77;4.18;;;16.20;99.90;;;;;;5072890;28;20467;-87
2021/08/09 07:15:48;;;;;;;15.82;5.53;;;16.20;99.90;;;;;;5055749;28;20044;-86
2021/08/09 07:18:15;;;;;;;24.02;6.90;;;16.30;99.90;;;;;;5071445;28;20152;-88
2021/08/09 07:20:41;;;;;;;16.20;3.65;;;16.30;99.90;;;;;;5091538;28;20157;-89
2021/08/09 07:23:07;;;;;;;13.00;3.55;;;16.40;99.90;;;;;;5090211;28;20219;-88
2021/08/09 07:25:34;;;;;;;17.30;4.72;;;16.40;99.90;;;;;;5056402;28;20050;-89
2021/08/09 07:27:59;;;;;;;14.52;3.17;;;16.50;99.90;;;;;;5072282;28;20043;-89
2021/08/09 07:30:25;;;;;;;13.05;3.55;;;16.60;99.90;;;;;;5063326;28;20048;-88
2021/08/09 07:32:51;;;;;;;15.68;3.22;;;16.70;99.90;;;;;;5055442;28;20132;-87
2021/08/09 07:35:17;;;;;;;15.75;3.97;;;16.70;99.90;;;;;;5071555;28;20632;-87
2021/08/09 07:37:43;;;;;;;18.63;3.58;;;16.80;99.90;;;;;;5056068;28;20406;-86
2021/08/09 07:40:10;;;;;;;13.38;3.30;;;16.80;99.90;;;;;;5071933;28;20040;-86
2021/08/09 07:42:35;;;;;;;18.83;3.80;;;16.90;99.90;;;;;;5053795;28;20119;-86
2021/08/09 07:45:01;;;;;;;18.80;3.72;;;17.00;99.90;;;;;;5071158;28;20147;-87
2021/08/09 07:47:27;;;;;;;17.02;3.40;;;17.10;99.90;;;;;;5072501;28;20040;-85
2021/08/09 07:49:53;;;;;;;17.60;3.75;;;17.10;99.90;;;;;;5054944;28;21382;-87
2021/08/09 07:52:18;;;;;;;18.27;3.83;;;17.20;99.90;;;;;;5088333;28;20042;-87
2021/08/09 07:54:44;;;;;;;17.25;3.47;;;17.20;99.90;;;;;;5071120;28;20040;-86
2021/08/09 07:57:11;;;;;;;14.80;3.00;;;17.20;99.90;;;;;;5050376;28;20424;-87
2021/08/09 07:59:37;;;;;;;10.43;3.45;;;17.30;99.90;;;;;;5084445;28;20052;-87
2021/08/09 08:02:04;;;;;;;15.38;3.72;;;17.50;99.90;;;;;;5071457;28;20054;-86
2021/08/09 08:04:31;;;;;;;20.35;4.20;;;17.50;99.90;;;;;;5039849;28;20040;-87
2021/08/09 08:06:57;;;;;;;17.95;4.43;;;17.70;99.90;;;;;;5069048;28;20515;-87
2021/08/09 08:09:23;;;;;;;21.63;4.38;;;17.70;99.90;;;;;;5076408;28;20036;-87
2021/08/09 08:11:48;;;;;;;15.35;3.33;;;17.90;99.90;;;;;;5108844;28;20923;-87
2021/08/09 08:14:14;;;;;;;20.70;4.53;;;18.00;99.90;;;;;;5087392;28;20040;-87
2021/08/09 08:16:40;;;;;;;19.20;3.30;;;18.10;99.90;;;;;;5088958;28;20047;-88
2021/08/09 08:19:06;;;;;;;17.38;3.70;;;18.20;99.90;;;;;;5071218;28;20084;-88
2021/08/09 08:21:32;;;;;;;17.58;3.17;;;18.30;99.90;;;;;;5057444;28;20032;-89
2021/08/09 08:23:58;;;;;;;16.95;3.13;;;18.40;99.90;;;;;;5055316;28;20039;-86
2021/08/09 08:26:25;;;;;;;16.50;3.80;;;18.50;99.90;;;;;;5088805;28;20300;-87
2021/08/09 08:28:50;;;;;;;13.98;3.10;;;18.60;99.90;;;;;;5070702;28;20040;-87
2021/08/09 08:31:16;;;;;;;22.60;3.35;;;18.70;99.90;;;;;;5070895;28;20474;-87
2021/08/09 08:33:42;;;;;;;16.13;4.53;;;18.90;99.90;;;;;;5072242;28;20119;-86
2021/08/09 08:36:08;;;;;;;16.55;3.40;;;19.10;99.90;;;;;;5054254;28;20483;-87
2021/08/09 08:38:35;;;;;;;18.17;3.30;;;19.20;99.90;;;;;;5071835;28;20048;-88
2021/08/09 08:41:04;;;;;;;15.52;3.03;;;19.20;99.90;;;;;;5088545;28;20059;-87
2021/08/09 08:43:30;;;;;;;17.23;3.20;;;19.30;99.90;;;;;;5070966;28;20123;-87
2021/08/09 08:46:01;;;;;;;12.90;3.08;;;19.20;99.90;;;;;;5089738;28;20122;-87
2021/08/09 08:48:29;;;;;;;17.73;3.75;;;19.20;99.90;;;;;;5070616;28;20117;-87
2021/08/09 08:50:57;;;;;;;25.08;4.00;;;19.20;99.90;;;;;;5071522;28;20048;-87
2021/08/09 08:53:25;;;;;;;18.00;3.45;;;19.20;99.90;;;;;;5089060;28;20040;-87
2021/08/09 08:55:51;;;;;;;17.92;4.00;;;19.20;99.90;;;;;;5068075;28;20056;-87
2021/08/09 08:58:17;;;;;;;16.77;4.18;;;19.30;99.90;;;;;;5067678;28;20115;-87
2021/08/09 09:00:43;;;;;;;19.27;4.95;;;19.30;99.90;;;;;;5088836;28;20047;-88
2021/08/09 09:03:28;;;;;;;15.82;3.95;;;19.30;99.90;;;;;;5053385;28;20064;-87
2021/08/09 09:06:01;;;;;;;15.13;4.20;;;19.40;99.90;;;;;;5057415;28;20047;-88
2021/08/09 09:08:37;;;;;;;14.07;3.05;;;19.30;99.90;;;;;;5101794;28;20051;-88
2021/08/09 09:11:04;;;;;;;16.98;3.00;;;19.30;99.90;;;;;;5074861;28;20044;-88
2021/08/09 09:13:30;;;;;;;21.02;4.07;;;19.30;99.90;;;;;;5086177;28;20066;-87
2021/08/09 09:16:07;;;;;;;16.77;3.97;;;19.30;99.90;;;;;;5089054;28;20036;-87
2021/08/09 09:18:53;;;;;;;21.58;3.85;;;19.30;99.90;;;;;;5069908;28;20044;-88
2021/08/09 09:21:26;;;;;;;18.48;4.15;;;19.30;99.90;;;;;;5069652;28;20047;-88
2021/08/09 09:23:54;;;;;;;13.10;3.20;;;19.40;99.90;;;;;;5089733;28;20388;-86
2021/08/09 09:26:23;;;;;;;13.95;3.17;;;19.50;99.90;;;;;;5069507;28;20119;-87
2021/08/09 09:28:50;;;;;;;19.80;3.72;;;19.70;99.90;;;;;;5089178;28;20084;-87
2021/08/09 09:31:28;;;;;;;20.23;3.35;;;19.80;99.90;;;;;;5060450;28;20085;-88
2021/08/09 09:33:54;;;;;;;14.45;3.17;;;19.90;99.90;;;;;;5068017;28;20105;-88
2021/08/09 09:36:21;;;;;;;16.42;3.00;;;20.00;99.90;;;;;;5067337;28;20040;-88
2021/08/09 09:38:52;;;;;;;13.68;3.10;;;20.00;99.90;;;;;;5050945;28;20052;-87
2021/08/09 09:41:22;;;;;;;11.82;3.60;;;20.10;99.90;;;;;;5081541;28;20048;-89
2021/08/09 09:43:49;;;;;;;17.58;3.65;;;20.10;99.90;;;;;;5067940;28;20040;-88
2021/08/09 09:46:28;;;;;;;14.18;2.70;;;20.10;99.90;;;;;;5067244;28;20086;-88
2021/08/09 09:49:12;;;;;;;16.63;2.70;;;20.10;99.90;;;;;;5084304;28;20455;-87
2021/08/09 09:51:43;;;;;;;17.08;3.67;;;20.20;99.90;;;;;;5071531;28;20040;-87
2021/08/09 09:54:09;;;;;;;15.95;3.75;;;20.30;99.90;;;;;;5071037;28;20119;-89
2021/08/09 09:56:37;;;;;;;12.52;2.60;;;20.40;99.90;;;;;;5070468;28;20060;-87
2021/08/09 09:59:04;;;;;;;16.00;3.25;;;20.60;99.90;;;;;;5070979;28;20032;-88
2021/08/09 10:01:30;;;;;;;13.60;3.20;;;20.50;99.90;;;;;;5065259;28;20174;-87
2021/08/09 10:03:56;;;;;;;10.70;2.53;;;20.60;99.90;;;;;;5051067;28;20522;-87
2021/08/09 10:06:23;;;;;;;13.45;3.00;;;20.60;99.90;;;;;;5046248;28;20432;-87
2021/08/09 10:08:50;;;;;;;11.57;3.13;;;20.50;99.90;;;;;;5051538;28;20757;-87
2021/08/09 10:11:20;;;;;;;14.60;2.40;;;20.60;99.90;;;;;;5034691;28;20119;-88
2021/08/09 10:13:47;;;;;;;10.45;2.88;;;20.60;99.90;;;;;;5086838;28;20121;-87
2021/08/09 10:16:13;;;;;;;12.27;2.80;;;20.70;99.90;;;;;;5053371;28;20043;-91
2021/08/09 10:18:47;;;;;;;15.30;2.78;;;20.70;99.90;;;;;;5070360;28;20048;-88
2021/08/09 10:21:14;;;;;;;9.88;2.50;;;20.80;99.90;;;;;;5067736;28;20514;-90
2021/08/09 10:23:44;;;;;;;12.30;2.70;;;21.00;99.90;;;;;;5087623;28;20119;-88
2021/08/09 10:26:33;;;;;;;11.57;2.20;;;21.20;99.90;;;;;;5088808;28;20044;-89
2021/08/09 10:29:11;;;;;;;11.13;2.42;;;21.20;99.90;;;;;;5087146;28;20055;-89
2021/08/09 10:31:42;;;;;;;6.35;1.67;;;21.20;99.90;;;;;;5087694;28;20144;-90
2021/08/09 10:34:31;;;;;;;16.63;2.58;;;21.20;99.90;;;;;;5082066;28;20047;-89
2021/08/09 10:37:05;;;;;;;;;;;21.30;99.90;;;;;;5076989;28;20032;-89
2021/08/09 10:39:59;;;;;;;11.88;1.75;;;21.60;99.90;;;;;;5070149;28;19924;-88
2021/08/09 10:42:27;;;;;;;5.28;1.58;;;21.70;99.90;;;;;;5069479;28;20040;-88
2021/08/09 10:44:53;;;;;;;7.45;2.10;;;21.80;99.90;;;;;;5070963;28;20036;-89
2021/08/09 10:47:46;;;;;;;11.73;2.45;;;21.90;99.90;;;;;;5070097;28;20048;-89
2021/08/09 10:50:24;;;;;;;8.00;2.03;;;21.90;99.90;;;;;;5088570;28;20040;-88
2021/08/09 10:52:51;;;;;;;3.58;1.20;;;22.00;99.90;;;;;;5070297;28;20048;-89
2021/08/09 10:55:35;;;;;;;6.57;1.65;;;22.10;99.90;;;;;;5073879;28;20043;-88
2021/08/09 10:58:02;;;;;;;5.80;1.45;;;22.20;99.90;;;;;;5091604;28;20519;-86
2021/08/09 11:00:43;;;;;;;4.65;1.25;;;22.30;99.20;;;;;;5069608;28;20040;-86
2021/08/09 11:03:11;;;;;;;4.55;1.40;;;22.30;98.60;;;;;;5072586;28;20568;-85
2021/08/09 11:05:37;;;;;;;6.85;1.77;;;22.30;97.10;;;;;;5073761;28;20480;-89
2021/08/09 11:08:15;;;;;;;5.32;1.10;;;22.40;97.30;;;;;;5057869;28;20039;-89
2021/08/09 11:11:01;;;;;;;5.03;1.65;;;22.50;98.50;;;;;;5088950;28;20039;-89
2021/08/09 11:13:48;;;;;;;7.93;1.50;;;22.70;97.20;;;;;;5087474;28;20040;-88
2021/08/09 11:16:29;;;;;;;8.00;1.38;;;22.60;96.70;;;;;;5111737;28;20122;-89
2021/08/09 11:18:58;;;;;;;5.30;1.92;;;22.80;97.70;;;;;;5105910;28;20075;-92
2021/08/09 11:21:25;;;;;;;10.90;1.63;;;22.80;98.20;;;;;;5103891;28;20475;-89
2021/08/09 11:23:52;;;;;;;5.28;1.30;;;22.90;96.60;;;;;;5070196;28;20149;-88
2021/08/09 11:26:20;;;;;;;2.65;1.10;;;23.00;95.70;;;;;;5093038;28;20050;-90
2021/08/09 11:29:06;;;;;;;8.13;1.42;;;23.00;95.20;;;;;;5102420;28;20039;-88
2021/08/09 11:31:46;;;;;;;3.67;1.33;;;23.20;96.50;;;;;;5073539;28;20040;-88
2021/08/09 11:34:13;;;;;;;3.83;1.10;;;23.30;94.20;;;;;;5071438;28;20477;-88
2021/08/09 11:36:39;;;;;;;7.78;1.42;;;23.30;96.10;;;;;;5072746;28;20044;-88
2021/08/09 11:39:05;;;;;;;4.15;1.33;;;23.30;96.20;;;;;;5091799;28;20049;-88
2021/08/09 11:41:31;;;;;;;2.70;1.27;;;23.20;95.20;;;;;;5073227;28;20089;-89
2021/08/09 11:44:07;;;;;;;5.53;1.38;;;23.00;95.80;;;;;;5091716;28;20111;-88
2021/08/09 11:46:44;;;;;;;5.63;1.50;;;22.90;96.20;;;;;;5094079;28;20487;-88
2021/08/09 11:49:10;;;;;;;5.30;1.50;;;22.80;96.50;;;;;;5073404;28;20402;-88
2021/08/09 11:51:35;;;;;;;4.07;1.35;;;22.60;97.30;;;;;;5056888;28;20138;-88
2021/08/09 11:54:01;;;;;;;5.13;1.30;;;22.30;96.30;;;;;;5056908;28;20047;-88
2021/08/09 11:56:34;;;;;;;3.65;1.15;;;22.00;96.60;;;;;;5055737;28;20496;-88
2021/08/09 11:59:14;;;;;;;3.60;0.88;;;21.70;96.50;;;;;;5044738;28;20044;-87
2021/08/09 12:01:41;;;;;;;5.03;1.42;;;21.50;97.50;;;;;;5071444;28;20391;-88
2021/08/09 12:04:19;;;;;;;3.67;1.20;;;21.30;98.60;;;;;;5070898;28;20044;-88
2021/08/09 12:06:58;;;;;;;2.90;0.88;;;21.20;98.70;;;;;;5064653;28;20067;-88
2021/08/09 12:09:41;;;;;;;1.25;0.90;;;21.20;98.40;;;;;;5078789;28;20450;-89
2021/08/09 12:12:09;;;;;;;2.60;1.15;;;21.20;98.90;;;;;;5083267;28;20120;-88
2021/08/09 12:14:35;;;;;;;2.78;1.08;;;21.10;98.60;;;;;;5070420;28;20044;-87
2021/08/09 12:17:15;;;;;;;3.35;1.33;;;21.20;98.20;;;;;;5035411;28;20047;-86
2021/08/09 12:19:49;;;;;;;3.90;1.08;;;21.20;98.10;;;;;;5069853;28;20061;-87
2021/08/09 12:22:26;;;;;;;3.58;0.90;;;21.30;98.90;;;;;;5064359;28;20044;-87
2021/08/09 12:25:14;;;;;;;3.55;1.25;;;21.50;98.30;;;;;;5070648;28;20471;-87
2021/08/09 12:27:42;;;;;;;4.38;1.05;;;21.60;97.70;;;;;;5070963;28;20036;-87
2021/08/09 12:30:11;;;;;;;2.63;1.13;;;21.60;98.30;;;;;;5075834;28;20044;-87
2021/08/09 12:32:58;;;;;;;6.30;1.00;;;21.80;97.90;;;;;;5069119;28;20772;-89
2021/08/09 12:35:39;;;;;;;4.18;1.02;;;22.10;98.50;;;;;;5078961;28;20036;-87
2021/08/09 12:38:07;;;;;;;4.80;1.50;;;22.20;96.20;;;;;;5090322;28;20484;-87
2021/08/09 12:40:41;;;;;;;3.88;1.23;;;22.40;96.70;;;;;;5089628;28;20040;-87
2021/08/09 12:43:09;;;;;;;1.27;1.17;;;22.50;97.00;;;;;;5089916;28;20040;-86
2021/08/09 12:45:36;;;;;;;4.72;1.23;;;22.70;97.00;;;;;;5089191;28;20047;-87